Latest Weather Observations for Paraburdoo

IDW60801

Issued at 9:43 pm WST Sunday 17 February 2019 (issued every 10 minutes, with the page automatically refreshed every 10 minutes)

About weather observations | Map of weather stations | Latest weather observations for WA | Other Formats
Station Details ID: 007185 Name: PARABURDOO AERO Lat: -23.17 Lon: 117.75 Height: 423.7 m
Data from the previous 72 hours. | See also: Recent months at Paraburdoo
Date/Time
WST
Temp
°C
App
Temp
°C
Dew
Point
°C
Rel
Hum
%
Delta-T
°C
Wind Press
QNH
hPa
Press
MSL
hPa
Rain since
9am
mm
Dir  Spd
km/h
Gust
km/h
Spd
kts
Gust
kts
17/09:30pm 38.9 33.6 1.8 10 19.7 SW 19 28 10 15 1008.7 1005.0 0.0
17/09:00pm 38.6 35.2 1.6 10 19.5 SW 9 15 5 8 1008.4 1004.8 0.0
17/08:30pm 38.1 34.7 -0.3 9 19.6 SW 7 11 4 6 1008.2 1004.6 0.0
17/08:00pm 39.7 35.9 -0.7 8 20.7 WSW 9 11 5 6 1007.9 1004.3 0.0
17/07:30pm 40.5 36.4 -0.1 8 21.1 WSW 11 15 6 8 1007.7 1004.1 0.0
17/07:00pm 41.5 36.5 -1.2 7 22.0 WSW 15 19 8 10 1007.3 1003.6 0.0
17/06:30pm 42.0 36.3 -0.9 7 22.2 WSW 19 26 10 14 1007.0 1003.3 0.0
17/06:00pm 42.9 37.7 -0.2 7 22.7 W 17 22 9 12 1006.7 1003.0 0.0
17/05:30pm 43.4 38.6 0.1 7 22.9 WSW 15 20 8 11 1006.5 1002.8 0.0
17/05:00pm 43.5 38.0 -1.9 6 23.4 WSW 17 28 9 15 1006.5 1002.8 0.0
17/04:30pm 43.8 38.0 -1.7 6 23.5 WSW 19 26 10 14 1006.9 1003.2 0.0
17/04:00pm 43.2 37.6 0.0 7 22.8 WSW 19 28 10 15 1006.9 1003.2 0.0
17/03:30pm 44.2 38.4 -1.4 6 23.7 WNW 19 30 10 16 1007.1 1003.4 0.0
17/03:00pm 43.9 39.9 0.5 7 23.2 NW 11 26 6 14 1007.3 1003.6 0.0
17/02:30pm 44.0 38.0 -1.5 6 23.6 SSW 20 32 11 17 1007.7 1004.1 0.0
17/02:00pm 43.9 37.5 -1.6 6 23.6 WSW 22 30 12 16 1008.0 1004.4 0.0
17/01:30pm 43.1 38.3 -2.2 6 23.1 W 13 20 7 11 1008.4 1004.8 0.0
17/01:00pm 43.2 38.7 0.0 7 22.8 SSW 13 20 7 11 1008.9 1005.2 0.0
17/12:30pm 43.8 38.6 0.4 7 23.1 SSW 17 30 9 16 1009.4 1005.7 0.0
17/12:00pm 42.2 38.4 -0.7 7 22.3 SW 9 17 5 9 1009.9 1006.3 0.0
17/11:30am 41.4 37.5 -1.3 7 21.9 NNW 9 15 5 8 1010.3 1006.7 0.0
17/11:00am 40.4 36.4 -2.0 7 21.4 NNE 9 22 5 12 1010.7 1007.1 0.0
17/10:30am 40.0 35.5 -0.5 8 20.8 ESE 13 22 7 12 1011.3 1007.6 0.0
17/10:00am 40.1 35.2 -0.4 8 20.9 ESE 15 20 8 11 1011.6 1007.9 0.0
17/09:30am 38.6 34.7 -1.5 8 20.2 SE 9 20 5 11 1011.9 1008.3 0.0
17/09:00am 37.5 33.5 0.7 10 19.0 ESE 11 19 6 10 1012.1 1008.5 0.0
17/08:30am 35.0 32.1 1.4 12 17.3 WNW 6 11 3 6 1012.3 1008.7 0.0
17/08:00am 33.1 30.3 3.0 15 15.7 WNW 7 9 4 5 1012.3 1008.7 0.0
17/07:30am 30.9 29.5 3.8 18 14.2 CALM 0 0 0 0 1012.2 1008.6 0.0
17/07:00am 29.3 27.9 3.3 19 13.4 CALM 0 0 0 0 1012.1 1008.5 0.0
17/06:30am 26.2 23.1 3.5 23 11.5 NE 9 13 5 7 1011.9 1008.3 0.0
17/06:00am 25.6 22.9 3.6 24 11.1 ESE 7 9 4 5 1011.5 1007.8 0.0
17/05:30am 25.5 22.0 3.5 24 11.1 E 11 13 6 7 1011.6 1007.9 0.0
17/05:00am 25.8 23.9 3.1 23 11.4 N 2 4 1 2 1011.3 1007.6 0.0
17/04:30am 27.1 24.3 2.9 21 12.2 N 7 9 4 5 1011.0 1007.4 0.0
17/04:00am 28.0 25.2 3.0 20 12.7 WNW 7 7 4 4 1010.9 1007.3 0.0
17/03:30am 27.8 25.0 2.1 19 12.8 W 6 7 3 4 1010.8 1007.2 0.0
17/03:00am 28.3 26.7 2.5 19 13.0 CALM 0 0 0 0 1011.0 1007.4 0.0
17/02:30am 30.9 28.1 2.2 16 14.6 S 6 6 3 3 1011.3 1007.6 0.0
17/02:00am 32.7 29.8 1.7 14 15.8 SSW 6 9 3 5 1011.2 1007.5 0.0
17/01:30am 33.0 30.0 0.9 13 16.2 WSW 6 9 3 5 1011.2 1007.5 0.0
17/01:00am 34.1 30.9 0.7 12 16.9 WSW 7 9 4 5 1011.2 1007.5 0.0
17/12:30am 35.5 31.5 0.6 11 17.8 SSW 11 20 6 11 1010.9 1007.3 0.0
17/12:00am 35.7 31.0 0.7 11 17.9 SSW 15 20 8 11 1011.2 1007.5 0.0
 
Date/Time
WST
Temp
°C
App
Temp
°C
Dew
Point
°C
Rel
Hum
%
Delta-T
°C
Wind Press
QNH
hPa
Press
MSL
hPa
Rain since
9am
mm
Dir  Spd
km/h
Gust
km/h
Spd
kts
Gust
kts
16/11:30pm 36.2 31.2 1.1 11 18.1 S 17 24 9 13 1011.5 1007.8 0.0
16/11:00pm 36.9 31.4 0.3 10 18.7 S 19 30 10 16 1011.5 1007.8 0.0
16/10:30pm 37.9 31.3 -0.4 9 19.5 SSW 24 37 13 20 1011.4 1007.7 0.0
16/10:00pm 38.4 31.9 0.0 9 19.7 SSW 24 35 13 19 1011.4 1007.7 0.0
16/09:30pm 38.8 32.3 0.3 9 19.9 SSW 24 33 13 18 1011.2 1007.5 0.0
16/09:00pm 37.2 32.8 0.5 10 18.9 SSW 13 17 7 9 1010.9 1007.3 0.0
16/08:30pm 37.3 33.7 0.6 10 18.9 S 9 11 5 6 1010.7 1007.1 0.0
16/08:00pm 37.2 33.4 -0.9 9 19.2 S 9 11 5 6 1010.6 1007.0 0.0
16/07:30pm 39.4 35.6 -0.9 8 20.5 S 9 11 5 6 1010.4 1006.8 0.0
16/07:00pm 40.7 36.0 -1.8 7 21.6 SSW 13 17 7 9 1010.2 1006.6 0.0
16/06:30pm 41.6 36.6 -1.1 7 22.0 S 15 24 8 13 1009.8 1006.2 0.0
16/06:00pm 42.3 36.4 -0.6 7 22.4 SSW 20 28 11 15 1009.6 1006.0 0.0
16/05:30pm 42.5 37.6 -0.5 7 22.4 SSW 15 30 8 16 1009.6 1006.0 0.0
16/05:00pm 43.0 37.4 -0.1 7 22.7 WSW 19 30 10 16 1009.6 1006.0 0.0
16/04:30pm 43.3 38.1 0.1 7 22.8 SSW 17 22 9 12 1009.7 1006.1 0.0
16/04:00pm 43.6 38.1 0.3 7 23.0 SSW 19 33 10 18 1009.7 1006.1 0.0
16/03:30pm 43.1 38.9 1.8 8 22.4 SSW 13 20 7 11 1009.9 1006.3 0.0
16/03:00pm 43.3 39.1 1.9 8 22.5 W 13 17 7 9 1010.1 1006.5 0.0
16/02:30pm 42.9 37.9 1.6 8 22.3 SSW 17 26 9 14 1010.5 1006.9 0.0
16/02:00pm 42.5 37.9 1.3 8 22.1 SSW 15 26 8 14 1010.9 1007.3 0.0
16/01:30pm 43.0 37.1 1.7 8 22.3 SE 22 33 12 18 1011.5 1007.8 0.0
16/01:00pm 42.5 36.9 1.3 8 22.1 SSE 20 32 11 17 1012.0 1008.4 0.0
16/12:30pm 41.2 35.1 0.4 8 21.4 SSE 22 33 12 18 1012.5 1008.9 0.0
16/12:00pm 41.8 36.1 0.8 8 21.7 SE 20 35 11 19 1013.0 1009.4 0.0
16/11:30am 40.3 34.1 -0.3 8 21.0 SE 22 33 12 18 1013.7 1010.0 0.0
16/11:00am 40.1 33.9 -0.4 8 20.9 ESE 22 33 12 18 1014.3 1010.7 0.0
16/10:30am 40.4 34.8 -0.2 8 21.0 SSE 19 30 10 16 1014.5 1010.9 0.0
16/10:00am 38.8 33.6 0.3 9 19.9 S 17 26 9 14 1014.9 1011.3 0.0
16/09:30am 37.5 32.4 0.7 10 19.0 SSE 17 28 9 15 1015.3 1011.7 0.0
16/09:00am 36.0 30.9 0.9 11 18.0 S 17 24 9 13 1015.3 1011.7 0.0
16/08:30am 35.1 30.9 1.5 12 17.3 S 13 17 7 9 1015.4 1011.8 0.0
16/08:00am 34.4 30.6 2.0 13 16.8 S 11 20 6 11 1015.2 1011.6 0.0
16/07:30am 32.8 30.3 3.7 16 15.3 NNW 6 9 3 5 1015.1 1011.5 0.0
16/07:00am 30.9 29.5 3.8 18 14.2 CALM 0 6 0 3 1014.9 1011.3 0.0
16/06:30am 31.3 27.4 3.4 17 14.5 SSW 13 15 7 8 1014.6 1011.0 0.0
16/06:00am 29.8 26.6 2.9 18 13.8 SSW 9 13 5 7 1014.5 1010.9 0.0
16/05:30am 28.0 25.6 4.3 22 12.3 NNW 6 15 3 8 1014.3 1010.7 0.0
16/05:00am 28.8 27.4 3.6 20 13.0 CALM 0 0 0 0 1013.9 1010.3 0.0
16/04:30am 30.4 28.5 2.6 17 14.2 N 2 6 1 3 1013.8 1010.1 0.0
16/04:00am 30.5 27.8 2.7 17 14.2 WSW 6 7 3 4 1013.7 1010.0 0.0
16/03:30am 32.6 29.3 2.6 15 15.5 SSW 9 11 5 6 1013.4 1009.8 0.0
16/03:00am 33.3 30.3 2.2 14 16.1 SSW 7 11 4 6 1013.3 1009.7 0.0
16/02:30am 33.7 29.6 2.5 14 16.2 SW 13 17 7 9 1013.6 1009.9 0.0
16/02:00am 33.8 30.1 2.6 14 16.3 WSW 11 17 6 9 1013.6 1009.9 0.0
16/01:30am 33.8 30.9 2.6 14 16.3 WSW 7 11 4 6 1013.7 1010.0 0.0
16/01:00am 34.4 31.4 2.0 13 16.8 SSW 7 13 4 7 1013.8 1010.1 0.0
16/12:30am 35.4 31.8 2.8 13 17.2 SSW 11 15 6 8 1013.6 1009.9 0.0
16/12:00am 35.7 31.7 3.0 13 17.3 S 13 19 7 10 1013.6 1009.9 0.0
 
Date/Time
WST
Temp
°C
App
Temp
°C
Dew
Point
°C
Rel
Hum
%
Delta-T
°C
Wind Press
QNH
hPa
Press
MSL
hPa
Rain since
9am
mm
Dir  Spd
km/h
Gust
km/h
Spd
kts
Gust
kts
15/11:30pm 36.2 31.5 3.4 13 17.5 S 17 20 9 11 1013.6 1009.9 0.0
15/11:00pm 36.5 31.7 2.5 12 18.0 S 17 26 9 14 1013.6 1009.9 0.0
15/10:30pm 37.4 32.3 3.2 12 18.3 S 19 32 10 17 1013.6 1009.9 0.0
15/10:00pm 36.3 32.8 5.5 15 17.0 SSW 13 15 7 8 1013.6 1009.9 0.0
15/09:30pm 34.6 32.0 6.0 17 15.8 S 9 9 5 5 1013.3 1009.7 0.0
15/09:00pm 35.5 33.4 5.8 16 16.4 SW 6 7 3 4 1013.3 1009.7 0.0
15/08:30pm 38.0 35.1 4.8 13 18.3 SW 9 11 5 6 1013.1 1009.5 0.0
15/08:00pm 38.7 35.7 4.2 12 18.9 SW 9 13 5 7 1012.8 1009.2 0.0
15/07:30pm 39.4 36.1 4.7 12 19.2 SW 11 13 6 7 1012.4 1008.8 0.0
15/07:00pm 40.2 36.4 4.1 11 19.9 SSW 13 20 7 11 1012.1 1008.5 0.0
15/06:30pm 41.0 36.7 3.4 10 20.6 SSW 15 20 8 11 1011.8 1008.2 0.0
15/06:00pm 41.3 36.3 3.6 10 20.8 SSW 19 24 10 13 1011.5 1007.8 0.0
15/05:30pm 41.4 36.2 3.7 10 20.8 SW 20 28 11 15 1011.4 1007.7 0.0
15/05:00pm 41.9 37.5 2.6 9 21.4 S 15 28 8 15 1011.5 1007.8 0.0
15/04:30pm 42.3 39.0 4.3 10 21.2 S 11 24 6 13 1011.4 1007.7 0.0
15/04:00pm 42.7 39.4 4.6 10 21.4 S 11 24 6 13 1011.5 1007.8 0.0
15/03:30pm 42.0 38.2 4.1 10 21.1 WSW 13 26 7 14 1011.6 1007.9 0.0
15/03:00pm 43.4 39.8 5.2 10 21.7 S 13 24 7 13 1011.7 1008.1 0.0
15/02:30pm 42.0 37.9 4.1 10 21.1 W 15 24 8 13 1011.9 1008.3 0.0
15/02:00pm 42.3 39.0 4.3 10 21.2 WSW 11 17 6 9 1012.2 1008.6 0.0
15/01:30pm 41.6 39.2 5.2 11 20.5 SSW 7 13 4 7 1012.6 1009.0 0.0
15/01:00pm 41.4 38.2 5.0 11 20.5 W 11 20 6 11 1013.0 1009.4 0.0
15/12:30pm 41.0 37.3 4.7 11 20.3 SW 13 26 7 14 1013.3 1009.7 0.0
15/12:00pm 40.3 35.8 4.2 11 20.0 SW 17 22 9 12 1013.8 1010.1 0.0
15/11:30am 39.3 35.4 3.4 11 19.5 S 13 22 7 12 1014.2 1010.6 0.0
15/11:00am 38.5 34.7 4.1 12 18.8 S 13 20 7 11 1014.7 1011.1 0.0
15/10:30am 38.2 35.8 7.0 15 17.8 SSE 9 17 5 9 1015.2 1011.6 0.0
15/10:00am 36.8 34.4 8.6 18 16.4 S 11 17 6 9 1015.6 1012.0 0.0
15/09:30am 35.5 33.0 8.3 19 15.6 S 11 17 6 9 1015.9 1012.3 0.0
15/09:00am 35.0 32.4 9.4 21 14.9 S 13 20 7 11 1016.1 1012.5 0.0
15/08:30am 33.9 31.5 9.9 23 14.0 S 13 19 7 10 1015.9 1012.3 0.0
15/08:00am 32.9 31.5 10.9 26 13.0 WSW 9 13 5 7 1015.7 1012.1 0.0
15/07:30am 31.7 29.8 10.4 27 12.4 W 11 15 6 8 1015.4 1011.8 0.0
15/07:00am 31.1 29.6 10.4 28 12.0 W 9 15 5 8 1015.3 1011.7 0.0
15/06:30am 29.4 27.7 10.0 30 11.1 NW 9 13 5 7 1015.1 1011.5 0.0
15/06:00am 28.1 26.8 9.9 32 10.4 NW 7 9 4 5 1014.7 1011.1 0.0
15/05:30am 27.9 26.5 9.7 32 10.3 WNW 7 9 4 5 1014.3 1010.7 0.0
15/05:00am 29.7 26.7 9.3 28 11.6 W 15 17 8 9 1014.0 1010.4 0.0
15/04:30am 28.7 26.8 8.9 29 11.1 WNW 9 11 5 6 1013.8 1010.1 0.0
15/04:00am 29.2 27.5 9.9 30 11.1 NW 9 11 5 6 1013.6 1009.9 0.0
15/03:30am 30.3 28.6 9.8 28 11.8 W 9 9 5 5 1013.3 1009.7 0.0
15/03:00am 30.7 28.9 9.6 27 12.1 W 9 13 5 7 1013.2 1009.6 0.0
15/02:30am 31.4 29.3 9.6 26 12.6 W 11 13 6 7 1013.2 1009.6 0.0
15/02:00am 31.6 29.4 9.2 25 12.8 W 11 13 6 7 1013.2 1009.6 0.0
15/01:30am 32.7 31.3 9.5 24 13.4 W 7 9 4 5 1013.1 1009.5 0.0
15/01:00am 33.5 31.2 8.9 22 14.1 WSW 11 13 6 7 1013.1 1009.5 0.0
15/12:30am 34.3 31.2 8.8 21 14.7 WNW 15 20 8 11 1013.1 1009.5 0.0
15/12:00am 34.8 31.2 8.5 20 15.1 NW 17 20 9 11 1013.2 1009.6 0.0
 
Date/Time
WST
Temp
°C
App
Temp
°C
Dew
Point
°C
Rel
Hum
%
Delta-T
°C
Wind Press
QNH
hPa
Press
MSL
hPa
Rain since
9am
mm
Dir  Spd
km/h
Gust
km/h
Spd
kts
Gust
kts
14/11:30pm 35.4 31.8 8.3 19 15.6 NW 17 22 9 12 1013.2 1009.6 0.0
14/11:00pm 36.1 33.2 8.0 18 16.1 NW 13 17 7 9 1013.3 1009.7 0.0
14/10:30pm 36.7 33.7 7.7 17 16.6 WNW 13 19 7 10 1013.4 1009.8 0.0
14/10:00pm 37.0 34.2 7.0 16 17.0 WNW 11 17 6 9 1013.1 1009.5 0.0

Other Formats:

Comma delimited format used in spreadsheet applications
http://www.bom.gov.au/fwo/IDW60801/IDW60801.94316.axf

JavaScript Object Notation format (JSON) in row-major order
http://www.bom.gov.au/fwo/IDW60801/IDW60801.94316.json